sensor_id;sensor_type;location;lat;lon;timestamp;pressure;altitude;pressure_sealevel;temperature;humidity
76990;BME280;65924;47.250;11.332;2023-10-13T00:05:43;95315.69;;;13.13;67.03
76990;BME280;65924;47.250;11.332;2023-10-13T00:15:45;95319.35;;;13.09;67.04
76990;BME280;65924;47.250;11.332;2023-10-13T00:25:59;95319.63;;;12.89;67.26
76990;BME280;65924;47.250;11.332;2023-10-13T00:36:03;95314.71;;;12.75;66.92
76990;BME280;65924;47.250;11.332;2023-10-13T00:46:05;95303.61;;;12.70;66.58
76990;BME280;65924;47.250;11.332;2023-10-13T00:56:14;95287.73;;;12.62;67.00
76990;BME280;65924;47.250;11.332;2023-10-13T01:06:28;95285.83;;;12.52;67.02
76990;BME280;65924;47.250;11.332;2023-10-13T01:16:29;95286.62;;;12.53;66.73
76990;BME280;65924;47.250;11.332;2023-10-13T01:26:30;95283.79;;;12.47;66.52
76990;BME280;65924;47.250;11.332;2023-10-13T01:36:33;95287.48;;;12.42;66.59
76990;BME280;65924;47.250;11.332;2023-10-13T01:46:36;95287.86;;;12.36;66.76
76990;BME280;65924;47.250;11.332;2023-10-13T01:56:38;95284.40;;;12.26;67.04
76990;BME280;65924;47.250;11.332;2023-10-13T02:06:44;95282.98;;;12.25;67.07
76990;BME280;65924;47.250;11.332;2023-10-13T02:16:45;95277.86;;;12.08;67.25
76990;BME280;65924;47.250;11.332;2023-10-13T02:26:47;95274.97;;;12.03;67.19
76990;BME280;65924;47.250;11.332;2023-10-13T02:36:48;95283.23;;;11.93;67.42
76990;BME280;65924;47.250;11.332;2023-10-13T02:46:49;95290.19;;;11.81;68.50
76990;BME280;65924;47.250;11.332;2023-10-13T02:56:50;95293.05;;;11.71;69.61
76990;BME280;65924;47.250;11.332;2023-10-13T03:06:57;95286.71;;;11.63;68.61
76990;BME280;65924;47.250;11.332;2023-10-13T03:17:02;95283.60;;;11.61;68.20
76990;BME280;65924;47.250;11.332;2023-10-13T03:27:05;95285.70;;;11.57;68.13
76990;BME280;65924;47.250;11.332;2023-10-13T03:37:09;95283.16;;;11.51;67.99
76990;BME280;65924;47.250;11.332;2023-10-13T03:47:18;95281.48;;;11.39;67.86
76990;BME280;65924;47.250;11.332;2023-10-13T03:57:26;95285.04;;;11.37;68.01
76990;BME280;65924;47.250;11.332;2023-10-13T04:07:27;95284.98;;;11.32;67.81
76990;BME280;65924;47.250;11.332;2023-10-13T04:17:40;95285.30;;;11.23;68.03
76990;BME280;65924;47.250;11.332;2023-10-13T04:27:44;95284.16;;;11.20;67.70
76990;BME280;65924;47.250;11.332;2023-10-13T04:37:54;95288.27;;;11.10;68.20
76990;BME280;65924;47.250;11.332;2023-10-13T04:48:22;95296.45;;;10.92;68.91
76990;BME280;65924;47.250;11.332;2023-10-13T04:58:22;95295.48;;;10.76;69.37
76990;BME280;65924;47.250;11.332;2023-10-13T05:08:35;95296.14;;;10.65;69.71
76990;BME280;65924;47.250;11.332;2023-10-13T05:18:55;95290.30;;;10.68;69.21
76990;BME280;65924;47.250;11.332;2023-10-13T05:29:14;95296.47;;;10.74;69.22
76990;BME280;65924;47.250;11.332;2023-10-13T05:39:33;95303.30;;;10.70;69.27
76990;BME280;65924;47.250;11.332;2023-10-13T05:49:53;95303.45;;;10.58;69.55
76990;BME280;65924;47.250;11.332;2023-10-13T06:00:05;95311.20;;;10.63;69.51
76990;BME280;65924;47.250;11.332;2023-10-13T06:10:25;95319.44;;;10.58;70.54
76990;BME280;65924;47.250;11.332;2023-10-13T06:20:45;95335.38;;;10.47;71.12
76990;BME280;65924;47.250;11.332;2023-10-13T06:31:05;95341.14;;;10.41;71.12
76990;BME280;65924;47.250;11.332;2023-10-13T06:41:12;95345.35;;;10.44;71.13
76990;BME280;65924;47.250;11.332;2023-10-13T06:51:30;95343.58;;;10.52;71.50
76990;BME280;65924;47.250;11.332;2023-10-13T07:01:38;95352.71;;;10.59;72.00
76990;BME280;65924;47.250;11.332;2023-10-13T07:11:39;95356.30;;;10.65;72.20
76990;BME280;65924;47.250;11.332;2023-10-13T07:21:44;95351.91;;;10.74;72.57
76990;BME280;65924;47.250;11.332;2023-10-13T07:31:46;95348.50;;;10.86;72.13
76990;BME280;65924;47.250;11.332;2023-10-13T07:41:48;95348.17;;;11.04;71.70
76990;BME280;65924;47.250;11.332;2023-10-13T07:51:52;95346.36;;;11.24;71.76
76990;BME280;65924;47.250;11.332;2023-10-13T08:01:57;95334.98;;;11.59;71.45
76990;BME280;65924;47.250;11.332;2023-10-13T08:12:12;95327.32;;;12.04;69.05
76990;BME280;65924;47.250;11.332;2023-10-13T08:22:21;95321.40;;;12.54;68.04
76990;BME280;65924;47.250;11.332;2023-10-13T08:32:24;95306.17;;;13.02;66.67
76990;BME280;65924;47.250;11.332;2023-10-13T08:42:35;95294.76;;;13.46;65.05
76990;BME280;65924;47.250;11.332;2023-10-13T08:52:42;95277.38;;;13.80;64.10
76990;BME280;65924;47.250;11.332;2023-10-13T09:02:49;95263.80;;;14.11;62.12
76990;BME280;65924;47.250;11.332;2023-10-13T09:13:00;95249.09;;;14.33;61.44
76990;BME280;65924;47.250;11.332;2023-10-13T09:23:14;95232.95;;;14.56;61.00
76990;BME280;65924;47.250;11.332;2023-10-13T09:33:29;95217.05;;;14.84;60.27
76990;BME280;65924;47.250;11.332;2023-10-13T09:43:59;95201.45;;;15.05;60.29
76990;BME280;65924;47.250;11.332;2023-10-13T09:54:25;95188.65;;;15.27;59.46
76990;BME280;65924;47.250;11.332;2023-10-13T10:04:30;95169.79;;;15.63;59.13
76990;BME280;65924;47.250;11.332;2023-10-13T10:24:43;95129.46;;;15.95;58.53
76990;BME280;65924;47.250;11.332;2023-10-13T10:34:44;95110.10;;;16.09;57.06
76990;BME280;65924;47.250;11.332;2023-10-13T10:44:45;95083.23;;;16.25;56.89
76990;BME280;65924;47.250;11.332;2023-10-13T10:54:58;95058.71;;;16.56;55.15
76990;BME280;65924;47.250;11.332;2023-10-13T11:05:00;95034.52;;;16.91;53.99
76990;BME280;65924;47.250;11.332;2023-10-13T11:15:06;95009.73;;;17.12;53.83
76990;BME280;65924;47.250;11.332;2023-10-13T11:25:25;94979.05;;;17.35;53.58
76990;BME280;65924;47.250;11.332;2023-10-13T11:35:36;94961.08;;;17.56;55.23
76990;BME280;65924;47.250;11.332;2023-10-13T11:46:13;94940.48;;;17.80;53.75
76990;BME280;65924;47.250;11.332;2023-10-13T11:56:26;94924.44;;;18.12;52.83
76990;BME280;65924;47.250;11.332;2023-10-13T12:06:28;94899.80;;;18.30;52.04
76990;BME280;65924;47.250;11.332;2023-10-13T12:16:36;94879.27;;;18.59;51.25
76990;BME280;65924;47.250;11.332;2023-10-13T12:26:36;94853.21;;;18.77;50.50
76990;BME280;65924;47.250;11.332;2023-10-13T12:36:39;94832.36;;;18.89;50.06
76990;BME280;65924;47.250;11.332;2023-10-13T12:46:54;94816.67;;;19.03;49.93
76990;BME280;65924;47.250;11.332;2023-10-13T12:57:16;94803.56;;;19.12;49.79
76990;BME280;65924;47.250;11.332;2023-10-13T13:07:17;94786.12;;;19.12;51.42
76990;BME280;65924;47.250;11.332;2023-10-13T13:17:17;94778.45;;;19.11;51.65
76990;BME280;65924;47.250;11.332;2023-10-13T13:27:18;94763.61;;;19.14;49.84
76990;BME280;65924;47.250;11.332;2023-10-13T13:37:20;94750.70;;;19.06;50.96
76990;BME280;65924;47.250;11.332;2023-10-13T13:47:21;94736.81;;;19.02;52.97
76990;BME280;65924;47.250;11.332;2023-10-13T13:57:23;94727.60;;;19.02;53.67
76990;BME280;65924;47.250;11.332;2023-10-13T14:07:23;94714.21;;;19.03;53.72
76990;BME280;65924;47.250;11.332;2023-10-13T14:17:25;94704.90;;;18.91;55.81
76990;BME280;65924;47.250;11.332;2023-10-13T14:27:36;94689.71;;;18.84;54.88
76990;BME280;65924;47.250;11.332;2023-10-13T14:37:37;94681.39;;;18.82;56.44
76990;BME280;65924;47.250;11.332;2023-10-13T14:47:39;94669.25;;;18.71;57.19
76990;BME280;65924;47.250;11.332;2023-10-13T14:57:39;94660.87;;;18.62;57.31
76990;BME280;65924;47.250;11.332;2023-10-13T15:07:40;94658.36;;;18.50;58.77
76990;BME280;65924;47.250;11.332;2023-10-13T15:17:45;94649.27;;;18.30;60.26
76990;BME280;65924;47.250;11.332;2023-10-13T15:27:49;94639.30;;;18.14;60.23
76990;BME280;65924;47.250;11.332;2023-10-13T15:38:16;94627.03;;;18.06;60.55
76990;BME280;65924;47.250;11.332;2023-10-13T15:48:17;94615.27;;;17.87;60.56
76990;BME280;65924;47.250;11.332;2023-10-13T15:58:18;94612.55;;;17.74;59.29
76990;BME280;65924;47.250;11.332;2023-10-13T16:08:21;94618.89;;;17.55;59.68
76990;BME280;65924;47.250;11.332;2023-10-13T16:18:22;94623.21;;;17.35;59.53
76990;BME280;65924;47.250;11.332;2023-10-13T16:28:23;94622.67;;;17.17;59.19
76990;BME280;65924;47.250;11.332;2023-10-13T16:38:26;94634.95;;;16.95;59.35
76990;BME280;65924;47.250;11.332;2023-10-13T16:48:28;94649.26;;;16.77;59.28
76990;BME280;65924;47.250;11.332;2023-10-13T16:58:31;94657.09;;;16.61;58.97
76990;BME280;65924;47.250;11.332;2023-10-13T17:08:34;94653.05;;;16.49;58.63
76990;BME280;65924;47.250;11.332;2023-10-13T17:18:40;94658.65;;;16.36;58.64
76990;BME280;65924;47.250;11.332;2023-10-13T17:28:40;94667.40;;;16.18;58.56
76990;BME280;65924;47.250;11.332;2023-10-13T17:38:41;94684.28;;;15.96;59.35
76990;BME280;65924;47.250;11.332;2023-10-13T17:48:45;94695.08;;;15.86;58.30
76990;BME280;65924;47.250;11.332;2023-10-13T17:58:49;94706.73;;;15.78;58.80
76990;BME280;65924;47.250;11.332;2023-10-13T18:08:54;94713.58;;;15.60;59.28
76990;BME280;65924;47.250;11.332;2023-10-13T18:18:55;94722.92;;;15.48;59.37
76990;BME280;65924;47.250;11.332;2023-10-13T18:28:57;94721.63;;;15.39;59.37
76990;BME280;65924;47.250;11.332;2023-10-13T18:38:59;94725.64;;;15.26;59.44
76990;BME280;65924;47.250;11.332;2023-10-13T18:49:00;94732.25;;;15.14;59.79
76990;BME280;65924;47.250;11.332;2023-10-13T18:59:02;94736.79;;;15.05;60.12
76990;BME280;65924;47.250;11.332;2023-10-13T19:09:04;94744.89;;;14.90;60.30
76990;BME280;65924;47.250;11.332;2023-10-13T19:19:05;94755.85;;;14.84;60.29
76990;BME280;65924;47.250;11.332;2023-10-13T19:29:06;94766.51;;;14.77;60.98
76990;BME280;65924;47.250;11.332;2023-10-13T19:39:08;94772.11;;;14.68;61.11
76990;BME280;65924;47.250;11.332;2023-10-13T19:49:10;94773.89;;;14.61;60.95
76990;BME280;65924;47.250;11.332;2023-10-13T19:59:13;94781.96;;;14.50;61.45
76990;BME280;65924;47.250;11.332;2023-10-13T20:09:16;94790.21;;;14.45;61.48
76990;BME280;65924;47.250;11.332;2023-10-13T20:19:26;94798.09;;;14.38;62.08
76990;BME280;65924;47.250;11.332;2023-10-13T20:29:28;94805.83;;;14.38;61.92
76990;BME280;65924;47.250;11.332;2023-10-13T20:39:29;94803.27;;;14.24;62.84
76990;BME280;65924;47.250;11.332;2023-10-13T20:49:32;94804.33;;;14.15;62.74
76990;BME280;65924;47.250;11.332;2023-10-13T20:59:36;94806.67;;;14.12;62.99
76990;BME280;65924;47.250;11.332;2023-10-13T21:09:40;94819.33;;;14.03;63.53
76990;BME280;65924;47.250;11.332;2023-10-13T21:19:40;94818.85;;;13.97;63.41
76990;BME280;65924;47.250;11.332;2023-10-13T21:29:41;94827.40;;;13.89;63.69
76990;BME280;65924;47.250;11.332;2023-10-13T21:39:42;94828.59;;;13.80;64.03
76990;BME280;65924;47.250;11.332;2023-10-13T21:49:42;94826.29;;;13.63;64.67
76990;BME280;65924;47.250;11.332;2023-10-13T21:59:49;94831.23;;;13.67;64.11
76990;BME280;65924;47.250;11.332;2023-10-13T22:09:50;94824.30;;;13.64;64.47
76990;BME280;65924;47.250;11.332;2023-10-13T22:19:51;94822.64;;;13.59;64.74
76990;BME280;65924;47.250;11.332;2023-10-13T22:29:52;94821.34;;;13.49;64.88
76990;BME280;65924;47.250;11.332;2023-10-13T22:39:52;94810.23;;;13.40;65.38
76990;BME280;65924;47.250;11.332;2023-10-13T22:49:53;94801.67;;;13.26;65.87
76990;BME280;65924;47.250;11.332;2023-10-13T22:59:54;94802.55;;;13.21;66.15
76990;BME280;65924;47.250;11.332;2023-10-13T23:09:54;94798.08;;;13.03;66.62
76990;BME280;65924;47.250;11.332;2023-10-13T23:20:01;94789.90;;;13.08;66.11
76990;BME280;65924;47.250;11.332;2023-10-13T23:30:02;94794.70;;;13.03;66.36
76990;BME280;65924;47.250;11.332;2023-10-13T23:40:03;94795.65;;;13.04;66.42
76990;BME280;65924;47.250;11.332;2023-10-13T23:50:14;94791.98;;;12.91;67.01
